createdAt,value
2022-09-06T00:01:23.429Z,65.00
2022-09-06T00:03:50.432Z,65.00
2022-09-06T00:06:18.868Z,64.80
2022-09-06T00:08:46.939Z,65.10
2022-09-06T00:11:14.113Z,64.90
2022-09-06T00:13:41.025Z,65.00
2022-09-06T00:16:16.756Z,65.50
2022-09-06T00:18:43.871Z,65.80
2022-09-06T00:21:15.775Z,66.00
2022-09-06T00:23:42.651Z,66.30
2022-09-06T00:26:09.401Z,66.40
2022-09-06T00:28:36.157Z,66.60
2022-09-06T00:31:18.790Z,66.50
2022-09-06T00:33:45.659Z,67.20
2022-09-06T00:36:13.808Z,66.50
2022-09-06T00:38:41.266Z,66.30
2022-09-06T00:41:09.699Z,66.40
2022-09-06T00:43:37.073Z,66.30
2022-09-06T00:46:05.229Z,66.60
2022-09-06T00:48:32.187Z,66.90
2022-09-06T00:51:04.257Z,66.80
2022-09-06T00:53:31.392Z,66.80
2022-09-06T00:55:58.380Z,67.00
2022-09-06T00:58:25.761Z,66.70
2022-09-06T01:09:10.357Z,70.70
2022-09-06T01:11:57.010Z,71.00
2022-09-06T01:15:01.294Z,71.70
2022-09-06T01:33:57.765Z,73.00
2022-09-06T01:36:27.470Z,73.40
2022-09-06T01:38:54.354Z,73.50
2022-09-06T01:41:21.087Z,73.40
2022-09-06T01:43:49.948Z,73.50
2022-09-06T01:46:33.614Z,74.40
2022-09-06T01:49:18.586Z,75.60
2022-09-06T01:52:02.084Z,75.70
2022-09-06T01:54:40.155Z,75.30
2022-09-06T01:57:43.801Z,76.40
2022-09-06T02:00:15.748Z,78.20
2022-09-06T02:02:42.476Z,79.50
2022-09-06T02:05:20.422Z,78.10
2022-09-06T02:07:47.848Z,78.40
2022-09-06T02:10:45.589Z,78.00
2022-09-06T02:13:13.463Z,79.00
2022-09-06T02:24:07.732Z,80.10
2022-09-06T02:26:37.349Z,79.60
2022-09-06T02:29:04.600Z,79.60
2022-09-06T02:31:42.632Z,79.70
2022-09-06T02:34:11.223Z,79.70
2022-09-06T02:36:38.108Z,79.90
2022-09-06T02:39:05.591Z,80.40
2022-09-06T02:41:33.627Z,79.70
2022-09-06T02:44:00.449Z,79.30
2022-09-06T02:46:27.441Z,79.00
2022-09-06T02:48:54.312Z,79.20
2022-09-06T02:51:21.153Z,79.00
2022-09-06T02:53:47.895Z,79.00
2022-09-06T02:56:15.051Z,78.90
2022-09-06T02:58:41.880Z,78.90
2022-09-06T03:01:09.103Z,79.30
2022-09-06T03:03:36.028Z,78.80
2022-09-06T03:06:02.800Z,78.80
2022-09-06T03:08:33.428Z,78.80
2022-09-06T03:11:00.809Z,78.60
2022-09-06T03:13:27.956Z,78.30
2022-09-06T03:15:56.732Z,78.10
2022-09-06T03:18:24.553Z,78.30
2022-09-06T03:20:52.409Z,78.20
2022-09-06T03:23:21.371Z,78.00
2022-09-06T03:25:48.191Z,77.90
2022-09-06T03:28:14.981Z,77.50
2022-09-06T03:30:45.212Z,77.30
2022-09-06T03:33:12.396Z,76.90
2022-09-06T03:35:39.181Z,76.80
2022-09-06T03:38:05.929Z,76.70
2022-09-06T03:40:32.724Z,76.80
2022-09-06T03:42:59.510Z,76.60
2022-09-06T03:45:26.328Z,76.50
2022-09-06T03:47:53.045Z,76.30
2022-09-06T03:50:21.858Z,76.40
2022-09-06T03:52:48.557Z,76.30
2022-09-06T03:55:17.353Z,76.50
2022-09-06T03:57:44.062Z,77.00
2022-09-06T04:00:12.666Z,76.50
2022-09-06T04:02:40.427Z,76.80
2022-09-06T04:05:07.815Z,77.00
2022-09-06T04:07:34.600Z,77.40
2022-09-06T04:10:01.517Z,77.50
2022-09-06T04:12:28.875Z,77.30
2022-09-06T04:14:55.604Z,77.00
2022-09-06T04:17:52.717Z,76.90
2022-09-06T04:20:19.434Z,77.20
2022-09-06T04:23:11.620Z,77.00
2022-09-06T04:25:38.600Z,76.90
2022-09-06T04:28:09.100Z,76.70
2022-09-06T04:30:35.852Z,76.80
2022-09-06T04:33:32.292Z,76.70
2022-09-06T04:36:00.526Z,76.80
2022-09-06T04:38:29.566Z,77.10
2022-09-06T04:40:56.701Z,77.00
2022-09-06T04:43:28.138Z,77.00
2022-09-06T04:45:54.876Z,77.10
2022-09-06T04:48:21.716Z,76.90
2022-09-06T04:50:48.457Z,76.30
2022-09-06T04:53:18.402Z,76.30
2022-09-06T04:55:45.098Z,76.60
2022-09-06T04:58:12.028Z,76.40
2022-09-06T05:00:39.719Z,76.50
2022-09-06T05:03:06.550Z,76.70
2022-09-06T05:05:33.475Z,76.70
2022-09-06T05:08:00.221Z,76.20
2022-09-06T05:10:27.478Z,76.50
2022-09-06T05:12:54.661Z,76.80
2022-09-06T05:15:22.649Z,76.80
2022-09-06T05:17:49.726Z,77.10
2022-09-06T05:20:16.933Z,77.30
2022-09-06T05:22:43.722Z,77.40
2022-09-06T05:25:10.460Z,77.60
2022-09-06T05:27:37.282Z,77.70
2022-09-06T05:30:04.766Z,78.00
2022-09-06T05:32:31.706Z,78.30
2022-09-06T05:34:58.484Z,78.30
2022-09-06T05:37:25.462Z,78.60
2022-09-06T05:39:52.292Z,78.60
2022-09-06T05:42:19.551Z,78.70
2022-09-06T05:44:46.532Z,78.80
2022-09-06T05:47:13.565Z,78.90
2022-09-06T05:49:40.453Z,79.00
2022-09-06T05:52:07.271Z,79.00
2022-09-06T05:54:34.045Z,79.10
2022-09-06T05:57:00.826Z,79.00
2022-09-06T05:59:27.596Z,79.00
2022-09-06T06:01:55.061Z,79.00
2022-09-06T06:04:22.465Z,79.00
2022-09-06T06:06:49.358Z,79.20
2022-09-06T06:09:16.790Z,79.20
2022-09-06T06:11:43.600Z,79.00
2022-09-06T06:14:10.528Z,78.90
2022-09-06T06:16:37.527Z,78.80
2022-09-06T06:19:04.453Z,78.70
2022-09-06T06:21:32.844Z,78.60
2022-09-06T06:24:01.939Z,78.50
2022-09-06T06:26:34.724Z,78.20
2022-09-06T06:29:05.633Z,78.10
2022-09-06T06:31:33.563Z,78.10
2022-09-06T06:34:03.156Z,77.90
2022-09-06T06:36:31.637Z,77.60
2022-09-06T06:38:58.842Z,77.20
2022-09-06T06:41:27.645Z,76.50
2022-09-06T06:43:57.002Z,76.30
2022-09-06T06:46:24.529Z,76.50
2022-09-06T06:48:54.857Z,76.20
2022-09-06T06:51:25.065Z,75.00
2022-09-06T06:53:52.577Z,75.10
2022-09-06T06:56:28.687Z,74.30
2022-09-06T06:58:57.688Z,74.30
2022-09-06T07:01:26.284Z,73.80
2022-09-06T07:03:54.332Z,73.30
2022-09-06T07:06:22.041Z,73.20
2022-09-06T07:08:49.057Z,72.60
2022-09-06T07:11:20.440Z,70.80
2022-09-06T07:13:49.961Z,70.00
2022-09-06T07:16:24.009Z,69.50
2022-09-06T07:18:52.552Z,69.80
2022-09-06T07:21:37.146Z,68.30
2022-09-06T07:24:08.288Z,69.20
2022-09-06T07:26:36.623Z,66.80
2022-09-06T07:29:04.976Z,67.40
2022-09-06T07:34:19.327Z,66.50
2022-09-06T07:36:46.212Z,66.40
2022-09-06T07:39:12.907Z,65.70
2022-09-06T07:41:39.671Z,66.20
2022-09-06T07:44:06.391Z,66.80
2022-09-06T07:46:33.273Z,66.80
2022-09-06T07:49:00.303Z,65.90
2022-09-06T07:51:27.123Z,63.90
2022-09-06T07:54:13.298Z,63.00
2022-09-06T07:56:45.785Z,63.80
2022-09-06T07:59:12.634Z,62.50
2022-09-06T08:01:40.028Z,61.40
2022-09-06T08:04:08.952Z,62.60
2022-09-06T08:09:25.125Z,61.10
2022-09-06T08:11:55.157Z,61.20
2022-09-06T08:14:21.859Z,61.70
2022-09-06T08:16:48.611Z,60.60
2022-09-06T08:19:15.530Z,60.40
2022-09-06T08:21:42.465Z,60.40
2022-09-06T08:24:10.217Z,58.30
2022-09-06T08:26:43.011Z,59.20
2022-09-06T08:29:10.797Z,57.70
2022-09-06T08:31:43.225Z,58.00
2022-09-06T08:34:12.631Z,58.50
2022-09-06T08:36:39.465Z,57.10
2022-09-06T08:39:09.141Z,56.60
2022-09-06T08:41:54.608Z,56.30
2022-09-06T08:44:57.388Z,56.70
2022-09-06T08:47:25.102Z,55.10
2022-09-06T08:50:02.286Z,55.70
2022-09-06T08:52:45.276Z,56.20
2022-09-06T08:55:37.406Z,56.80
2022-09-06T08:58:48.281Z,56.40
2022-09-06T09:01:19.426Z,56.40
2022-09-06T09:03:47.100Z,54.60
2022-09-06T09:06:13.815Z,53.40
2022-09-06T09:08:50.600Z,53.30
2022-09-06T09:11:19.193Z,53.10
2022-09-06T09:14:02.072Z,53.50
2022-09-06T09:16:28.837Z,52.90
2022-09-06T09:18:58.808Z,52.60
2022-09-06T09:21:30.662Z,52.40
2022-09-06T09:24:01.775Z,52.40
2022-09-06T09:26:32.957Z,52.70
2022-09-06T09:29:12.656Z,52.10
2022-09-06T09:31:51.082Z,52.90
2022-09-06T09:34:36.825Z,51.30
2022-09-06T09:40:49.301Z,51.60
2022-09-06T09:43:28.484Z,50.60
2022-09-06T09:46:28.140Z,51.20
2022-09-06T09:49:12.777Z,51.90
2022-09-06T09:51:41.772Z,52.40
2022-09-06T09:54:11.110Z,51.50
2022-09-06T09:56:47.309Z,51.10
2022-09-06T09:59:18.615Z,50.80
2022-09-06T10:01:45.446Z,51.10
2022-09-06T10:07:12.022Z,51.20
2022-09-06T10:09:41.845Z,50.50
2022-09-06T10:12:08.672Z,50.60
2022-09-06T10:14:45.864Z,50.90
2022-09-06T10:17:37.759Z,49.90
2022-09-06T10:20:08.678Z,49.70
2022-09-06T10:22:56.523Z,50.60
2022-09-06T10:25:42.998Z,50.00
2022-09-06T10:28:23.725Z,50.70
2022-09-06T10:30:56.329Z,50.90
2022-09-06T10:33:29.960Z,50.90
2022-09-06T10:35:57.998Z,51.30
2022-09-06T10:38:32.351Z,50.20
2022-09-06T10:41:38.036Z,50.10
2022-09-06T10:44:35.073Z,50.60
2022-09-06T10:47:10.729Z,50.10
2022-09-06T10:49:39.023Z,50.70
2022-09-06T10:52:09.827Z,50.00
2022-09-06T10:54:40.903Z,50.10
2022-09-06T11:00:18.783Z,49.80
2022-09-06T11:02:47.447Z,49.40
2022-09-06T11:11:11.430Z,49.50
2022-09-06T11:13:38.438Z,49.30
2022-09-06T11:16:12.005Z,49.80
2022-09-06T11:18:54.735Z,49.50
2022-09-06T11:21:50.646Z,49.90
2022-09-06T11:24:47.132Z,49.20
2022-09-06T11:27:43.359Z,49.20
2022-09-06T11:30:15.652Z,49.80
2022-09-06T11:32:50.300Z,48.90
2022-09-06T11:35:26.480Z,48.80
2022-09-06T11:38:16.148Z,49.10
2022-09-06T11:40:45.659Z,48.80
2022-09-06T11:43:18.557Z,49.30
2022-09-06T11:45:48.170Z,48.80
2022-09-06T11:48:24.167Z,48.40
2022-09-06T11:50:54.014Z,48.40
2022-09-06T11:53:24.603Z,49.00
2022-09-06T11:56:01.458Z,47.70
2022-09-06T11:58:39.559Z,48.00
2022-09-06T12:01:26.586Z,47.50
2022-09-06T12:04:10.035Z,47.60
2022-09-06T12:06:43.739Z,48.90
2022-09-06T12:09:34.543Z,48.40
2022-09-06T12:12:01.672Z,48.60
2022-09-06T12:14:40.327Z,48.40
2022-09-06T12:17:07.567Z,49.10
2022-09-06T12:19:47.658Z,48.60
2022-09-06T12:22:29.581Z,46.60
2022-09-06T12:25:34.086Z,46.10
2022-09-06T12:28:01.866Z,44.70
2022-09-06T12:30:42.328Z,45.00
2022-09-06T12:33:33.291Z,44.70
2022-09-06T12:36:32.434Z,45.40
2022-09-06T12:39:07.661Z,46.20
2022-09-06T12:41:43.278Z,45.70
2022-09-06T12:44:11.282Z,45.40
2022-09-06T12:46:39.906Z,45.50
2022-09-06T12:49:12.753Z,45.30
2022-09-06T12:51:40.891Z,45.40
2022-09-06T12:54:23.258Z,44.90
2022-09-06T12:56:50.999Z,44.20
2022-09-06T12:59:27.051Z,43.60
2022-09-06T13:02:02.695Z,42.60
2022-09-06T13:04:51.243Z,44.10
2022-09-06T13:07:18.449Z,43.20
2022-09-06T13:09:47.899Z,43.00
2022-09-06T13:12:26.179Z,43.70
2022-09-06T13:14:57.502Z,41.50
2022-09-06T13:17:26.385Z,41.30
2022-09-06T13:19:53.421Z,40.80
2022-09-06T13:22:38.890Z,41.40
2022-09-06T13:25:06.377Z,40.60
2022-09-06T13:27:36.791Z,40.60
2022-09-06T13:30:09.156Z,40.30
2022-09-06T13:32:37.453Z,39.50
2022-09-06T13:35:06.323Z,39.20
2022-09-06T13:37:36.175Z,39.60
2022-09-06T13:41:07.065Z,38.80
2022-09-06T13:43:29.073Z,38.20
2022-09-06T13:46:06.587Z,39.20
2022-09-06T13:48:33.689Z,38.80
2022-09-06T13:51:00.541Z,39.00
2022-09-06T13:53:27.645Z,39.00
2022-09-06T13:55:54.497Z,39.50
2022-09-06T13:58:21.410Z,39.90
2022-09-06T14:00:48.196Z,39.20
2022-09-06T14:03:24.867Z,40.40
2022-09-06T14:05:52.050Z,39.80
2022-09-06T14:08:18.947Z,39.60
2022-09-06T14:10:48.858Z,40.60
2022-09-06T14:13:16.646Z,40.80
2022-09-06T14:15:43.459Z,40.70
2022-09-06T14:18:14.244Z,40.20
2022-09-06T14:20:42.164Z,39.50
2022-09-06T14:23:09.191Z,37.90
2022-09-06T14:25:37.122Z,39.10
2022-09-06T14:28:04.692Z,39.60
2022-09-06T14:30:32.027Z,40.00
2022-09-06T14:32:59.144Z,40.50
2022-09-06T14:35:26.008Z,39.80
2022-09-06T14:37:52.723Z,38.90
2022-09-06T14:40:19.531Z,39.40
2022-09-06T14:42:50.303Z,38.40
2022-09-06T14:45:17.709Z,37.50
2022-09-06T14:47:44.424Z,38.40
2022-09-06T14:50:11.282Z,38.00
2022-09-06T14:52:38.056Z,37.60
2022-09-06T14:55:06.268Z,37.90
2022-09-06T14:57:33.190Z,37.10
2022-09-06T15:00:00.687Z,37.60
2022-09-06T15:02:29.028Z,37.10
2022-09-06T15:04:55.998Z,37.70
2022-09-06T15:07:23.258Z,36.40
2022-09-06T15:09:51.050Z,37.10
2022-09-06T15:12:18.318Z,36.80
2022-09-06T15:14:45.288Z,37.40
2022-09-06T15:17:15.306Z,37.40
2022-09-06T15:19:42.161Z,37.70
2022-09-06T15:22:09.039Z,38.50
2022-09-06T15:24:37.751Z,38.90
2022-09-06T15:27:05.118Z,39.30
2022-09-06T15:29:31.921Z,38.50
2022-09-06T15:31:58.632Z,39.10
2022-09-06T15:34:29.697Z,39.10
2022-09-06T15:36:57.070Z,39.30
2022-09-06T15:39:24.113Z,39.00
2022-09-06T15:41:51.579Z,39.20
2022-09-06T15:44:23.260Z,40.00
2022-09-06T15:46:51.972Z,39.40
2022-09-06T15:49:28.374Z,39.90
2022-09-06T15:51:57.165Z,40.10
2022-09-06T15:54:48.878Z,40.60
2022-09-06T15:57:16.787Z,40.60
2022-09-06T15:59:44.176Z,41.10
2022-09-06T16:02:11.265Z,40.90
2022-09-06T16:04:39.222Z,40.80
2022-09-06T16:07:06.989Z,41.20
2022-09-06T16:09:33.827Z,41.50
2022-09-06T16:12:00.583Z,41.50
2022-09-06T16:14:28.936Z,41.10
2022-09-06T16:16:57.409Z,41.60
2022-09-06T16:19:25.944Z,41.20
2022-09-06T16:21:52.795Z,41.40
2022-09-06T16:24:19.634Z,41.10
2022-09-06T16:26:47.007Z,41.60
2022-09-06T16:29:16.374Z,41.90
2022-09-06T16:31:43.310Z,42.40
2022-09-06T16:34:10.914Z,42.60
2022-09-06T16:36:37.982Z,43.10
2022-09-06T16:39:05.390Z,43.60
2022-09-06T16:41:41.041Z,43.80
2022-09-06T16:44:09.404Z,43.60
2022-09-06T16:46:36.281Z,43.70
2022-09-06T16:49:04.425Z,44.20
2022-09-06T16:51:31.446Z,44.50
2022-09-06T16:53:59.327Z,44.30
2022-09-06T16:56:33.290Z,44.80
2022-09-06T16:59:02.411Z,44.80
2022-09-06T17:01:31.285Z,44.90
2022-09-06T17:03:59.161Z,45.30
2022-09-06T17:06:25.992Z,45.20
2022-09-06T17:08:52.728Z,45.70
2022-09-06T17:11:21.122Z,45.90
2022-09-06T17:13:49.983Z,46.40
2022-09-06T17:16:35.992Z,46.60
2022-09-06T17:19:03.925Z,46.30
2022-09-06T17:21:30.920Z,47.00
2022-09-06T17:24:03.063Z,47.10
2022-09-06T17:26:32.792Z,47.30
2022-09-06T17:28:59.511Z,47.60
2022-09-06T17:31:26.739Z,47.20
2022-09-06T17:33:53.628Z,47.70
2022-09-06T17:36:25.361Z,47.70
2022-09-06T17:38:53.827Z,48.60
2022-09-06T17:41:24.226Z,48.60
2022-09-06T17:43:53.719Z,48.20
2022-09-06T17:46:25.268Z,48.20
2022-09-06T17:48:54.825Z,48.10
2022-09-06T17:51:22.135Z,48.60
2022-09-06T17:53:48.869Z,48.70
2022-09-06T17:56:17.904Z,48.60
2022-09-06T17:58:53.341Z,48.80
2022-09-06T18:01:20.182Z,48.80
2022-09-06T18:03:50.057Z,48.70
2022-09-06T18:06:20.127Z,48.90
2022-09-06T18:08:50.120Z,49.10
2022-09-06T18:11:26.116Z,49.40
2022-09-06T18:14:02.049Z,49.30
2022-09-06T18:16:29.659Z,49.60
2022-09-06T18:19:00.027Z,49.60
2022-09-06T18:21:29.089Z,49.70
2022-09-06T18:23:56.535Z,50.00
2022-09-06T18:26:24.225Z,50.40
2022-09-06T18:28:52.915Z,50.60
2022-09-06T18:31:22.728Z,50.80
2022-09-06T18:33:49.598Z,51.00
2022-09-06T18:36:17.154Z,51.30
2022-09-06T18:38:44.431Z,51.20
2022-09-06T18:41:33.386Z,51.60
2022-09-06T18:44:03.077Z,51.80
2022-09-06T18:46:31.287Z,52.20
2022-09-06T18:48:58.281Z,52.50
2022-09-06T18:51:25.469Z,52.60
2022-09-06T18:53:52.887Z,52.90
2022-09-06T18:56:20.320Z,53.10
2022-09-06T18:58:47.187Z,53.30
2022-09-06T19:01:18.224Z,53.30
2022-09-06T19:03:45.104Z,53.50
2022-09-06T19:06:15.444Z,53.60
2022-09-06T19:08:42.911Z,53.80
2022-09-06T19:11:17.705Z,54.00
2022-09-06T19:13:45.971Z,54.20
2022-09-06T19:16:13.898Z,54.20
2022-09-06T19:18:41.456Z,54.30
2022-09-06T19:21:13.560Z,54.60
2022-09-06T19:23:42.440Z,55.20
2022-09-06T19:26:13.425Z,55.30
2022-09-06T19:28:40.687Z,55.40
2022-09-06T19:31:09.619Z,55.40
2022-09-06T19:33:38.405Z,55.20
2022-09-06T19:36:11.949Z,54.80
2022-09-06T19:38:59.565Z,55.70
2022-09-06T19:41:27.433Z,55.80
2022-09-06T19:43:55.451Z,56.00
2022-09-06T19:46:23.166Z,55.70
2022-09-06T19:48:51.837Z,55.80
2022-09-06T19:51:19.301Z,55.70
2022-09-06T19:53:54.026Z,56.00
2022-09-06T19:56:23.533Z,56.00
2022-09-06T19:58:55.306Z,56.00
2022-09-06T20:01:23.027Z,55.90
2022-09-06T20:03:50.170Z,55.90
2022-09-06T20:06:17.072Z,56.00
2022-09-06T20:08:44.916Z,55.70
2022-09-06T20:11:14.877Z,56.50
2022-09-06T20:13:42.753Z,55.80
2022-09-06T20:16:10.446Z,55.80
2022-09-06T20:18:37.786Z,55.70
2022-09-06T20:21:05.343Z,55.90
2022-09-06T20:23:34.026Z,55.50
2022-09-06T20:26:09.784Z,55.70
2022-09-06T20:28:37.062Z,55.70
2022-09-06T20:31:06.441Z,55.70
2022-09-06T20:33:33.828Z,56.00
2022-09-06T20:36:05.771Z,55.90
2022-09-06T20:38:37.131Z,55.90
2022-09-06T20:41:06.428Z,56.00
2022-09-06T20:43:36.525Z,55.90
2022-09-06T20:46:12.279Z,56.00
2022-09-06T20:48:44.190Z,56.30
2022-09-06T20:51:19.333Z,56.40
2022-09-06T20:53:48.678Z,56.90
2022-09-06T20:56:21.029Z,57.30
2022-09-06T20:58:55.338Z,58.10
2022-09-06T21:01:24.339Z,58.50
2022-09-06T21:03:52.072Z,59.00
2022-09-06T21:06:20.357Z,59.50
2022-09-06T21:08:47.709Z,59.30
2022-09-06T21:11:14.481Z,59.20
2022-09-06T21:13:41.235Z,59.10
2022-09-06T21:16:08.566Z,59.10
2022-09-06T21:18:36.300Z,59.10
2022-09-06T21:21:07.759Z,59.10
2022-09-06T21:23:38.585Z,58.80
2022-09-06T21:26:10.980Z,59.20
2022-09-06T21:28:39.760Z,59.00
2022-09-06T21:31:14.329Z,59.30
2022-09-06T21:33:46.347Z,59.50
2022-09-06T21:36:18.619Z,59.80
2022-09-06T21:38:50.349Z,60.10
2022-09-06T21:41:18.359Z,60.70
2022-09-06T21:43:45.680Z,61.00
2022-09-06T21:46:17.603Z,61.30
2022-09-06T21:48:46.843Z,61.30
2022-09-06T21:51:14.401Z,61.30
2022-09-06T21:53:42.919Z,61.90
2022-09-06T21:56:10.099Z,61.90
2022-09-06T21:58:37.369Z,61.90
2022-09-06T22:01:04.955Z,62.10
2022-09-06T22:03:34.708Z,62.00
2022-09-06T22:06:09.014Z,61.80
2022-09-06T22:08:36.130Z,61.40
2022-09-06T22:11:11.122Z,61.00
2022-09-06T22:13:38.473Z,64.90
2022-09-06T22:16:07.994Z,66.10
2022-09-06T22:18:35.076Z,67.80
2022-09-06T22:21:03.892Z,68.10
2022-09-06T22:23:31.285Z,69.70
2022-09-06T22:26:10.298Z,69.60
2022-09-06T22:28:37.795Z,70.00
2022-09-06T22:31:05.368Z,70.50
2022-09-06T22:33:32.161Z,70.30
2022-09-06T22:36:01.766Z,70.90
2022-09-06T22:38:29.893Z,70.80
2022-09-06T22:40:58.388Z,70.60
2022-09-06T22:43:25.643Z,71.10
2022-09-06T22:45:52.397Z,71.10
2022-09-06T22:48:19.333Z,71.40
2022-09-06T22:50:46.307Z,71.40
2022-09-06T22:53:13.097Z,72.00
2022-09-06T22:55:39.817Z,71.80
2022-09-06T22:58:06.712Z,71.70
2022-09-06T23:00:36.124Z,71.80
2022-09-06T23:03:03.100Z,72.60
2022-09-06T23:05:31.560Z,72.80
2022-09-06T23:08:01.468Z,73.20
2022-09-06T23:10:29.800Z,73.90
2022-09-06T23:12:56.805Z,74.90
2022-09-06T23:15:23.545Z,75.20
2022-09-06T23:17:50.457Z,75.50
2022-09-06T23:20:17.405Z,76.10
2022-09-06T23:22:44.151Z,76.80
2022-09-06T23:25:10.859Z,76.80
2022-09-06T23:27:37.601Z,75.80
2022-09-06T23:30:05.644Z,76.40
2022-09-06T23:32:33.074Z,76.70
2022-09-06T23:34:59.825Z,77.00
2022-09-06T23:37:26.556Z,77.20
2022-09-06T23:39:53.566Z,77.50
2022-09-06T23:42:21.956Z,77.40
2022-09-06T23:44:54.351Z,77.50
2022-09-06T23:47:21.096Z,77.50
2022-09-06T23:49:49.901Z,77.90
2022-09-06T23:52:17.523Z,78.10
2022-09-06T23:54:44.491Z,78.20
2022-09-06T23:57:11.246Z,78.10
2022-09-06T23:59:37.963Z,78.30
